Jericho, New Jersey
Current Conditions -  °F | °C
As of 4:54 PM on Sunday 25 Jan 2015 (Local Time) from KPHL Reporting Station
Overcast Overcast  
Wind Chill: 39°   Ceiling: 3500
Heat Index: 44°   Visibility: 10mi
Dew Point: 31°   Wind: 9mph
Humidity: 60%   Direction: 270°W
Pressure: 29.85"   Gusts: NA
Location:  39.8266°N, 75.1276°W
Report Text: KPHL 252154Z 27008KT 10SM BKN035 BKN080 OVC250 07/M01 A2985 RMK AO2 SLP109 T00671006
Loading
Personal Weather Stations






























Interactive Weather Map New forecast layout! Learn more

10-Day Weather Forecast

Advertisements
Track Severe Weather on mobile